| time (UTC) | temp F | wind direction | speed MPH | gust MPH | rain 1hr in | rain 24hr in | rain mn in | humidity % | barometer mb |
| 20260905080504 | 85 | 343 | 7.0 | 20.0 | 0.00 | 0.00 | 0.00 | 36 | 1016.8 |
| 20260905075002 | 85 | 1 | 4.0 | 14.0 | 0.00 | 0.00 | 0.00 | 38 | 1016.8 |
| 20260905073501 | 84 | 59 | 6.0 | 14.0 | 0.00 | 0.00 | 0.00 | 39 | 1016.8 |
| 20260905072001 | 83 | 1 | 6.0 | 13.0 | 0.00 | 0.00 | 0.00 | 42 | 1016.7 |
| 20260905070501 | 82 | 358 | 8.0 | 21.0 | 0.00 | 0.00 | 0.00 | 42 | 1016.5 |
| 20260905065002 | 82 | 8 | 6.0 | 20.0 | 0.00 | 0.00 | 0.00 | 43 | 1016.3 |
| 20260905063501 | 82 | 345 | 5.0 | 12.0 | 0.00 | 0.00 | 0.00 | 43 | 1016.5 |
| 20260905062001 | 81 | 264 | 4.0 | 10.0 | 0.00 | 0.00 | 0.00 | 45 | 1016.8 |
| 20260905060507 | 80 | 353 | 2.0 | 7.0 | 0.00 | 0.00 | 0.00 | 46 | 1016.6 |
| 20260905055003 | 80 | 20 | 3.0 | 10.0 | 0.00 | 0.00 | 0.00 | 47 | 1016.6 |
| 20260905053502 | 79 | 30 | 0.0 | 4.0 | 0.00 | 0.00 | 0.00 | 49 | 1016.5 |
| 20260905052002 | 78 | 11 | 0.0 | 2.0 | 0.00 | 0.00 | 0.00 | 51 | 1016.5 |
| 20260905050503 | 77 | 0 | 0.0 | 3.0 | 0.00 | 0.00 | 0.00 | 53 | 1016.4 |
| 20260905045008 | 76 | 13 | 0.0 | 2.0 | 0.00 | 0.00 | 0.00 | 52 | 1016.3 |
| 20260905042003 | 76 | 173 | 0.0 | 1.0 | 0.00 | 0.00 | 0.00 | 53 | 1016.1 |
| 20260905040503 | 76 | 219 | 0.0 | 3.0 | 0.00 | 0.00 | 0.00 | 54 | 1015.8 |
| 20260905035008 | 76 | 161 | 2.0 | 5.0 | 0.00 | 0.00 | 0.00 | 54 | 1015.7 |
| 20260905033504 | 78 | 206 | 0.0 | 2.0 | 0.00 | 0.00 | 0.00 | 52 | 1015.6 |
| 20260905032002 | 78 | 265 | 2.0 | 5.0 | 0.00 | 0.00 | 0.00 | 52 | 1015.5 |
| 20260905030503 | 78 | 337 | 1.0 | 5.0 | 0.00 | 0.00 | 0.00 | 52 | 1015.4 |
| 20260905025005 | 77 | 324 | 2.0 | 6.0 | 0.00 | 0.00 | 0.00 | 54 | 1015.3 |
| 20260905022003 | 78 | 312 | 3.0 | 9.0 | 0.00 | 0.00 | 0.00 | 52 | 1015.2 |
| 20260905012006 | 78 | 78 | 2.0 | 6.0 | 0.00 | 0.00 | 0.00 | 49 | 1015.5 |
| 20260905010502 | 79 | 180 | 1.0 | 5.0 | 0.00 | 0.00 | 0.00 | 48 | 1015.5 |
| 20260905005001 | 79 | 1 | 2.0 | 7.0 | 0.00 | 0.00 | 0.00 | 46 | 1015.4 |
| 20260905003504 | 80 | 14 | 3.0 | 7.0 | 0.00 | 0.00 | 0.00 | 44 | 1015.3 |
| 20260905002001 | 80 | 344 | 2.0 | 6.0 | 0.00 | 0.00 | 0.00 | 43 | 1015.4 |
| 20260905000502 | 80 | 345 | 2.0 | 12.0 | 0.00 | 0.00 | 0.00 | 43 | 1015.4 |
| 20260904235002 | 79 | 24 | 3.0 | 6.0 | 0.00 | 0.00 | 0.00 | 43 | 1015.6 |
| 20260904233501 | 79 | 56 | 0.0 | 0.0 | 0.00 | 0.00 | 0.00 | 43 | 1015.7 |
| 20260904232001 | 79 | 124 | 0.0 | 1.0 | 0.00 | 0.00 | 0.00 | 43 | 1015.8 |
| 20260904230502 | 79 | 42 | 0.0 | 0.0 | 0.00 | 0.00 | 0.00 | 42 | 1015.7 |
| 20260904225006 | 80 | 353 | 0.0 | 3.0 | 0.00 | 0.00 | 0.00 | 42 | 1015.8 |
| 20260904223505 | 80 | 27 | 0.0 | 2.0 | 0.00 | 0.00 | 0.00 | 41 | 1015.9 |
| 20260904222003 | 80 | 23 | 0.0 | 7.0 | 0.00 | 0.00 | 0.00 | 40 | 1015.9 |
| 20260904220503 | 80 | 141 | 0.0 | 2.0 | 0.00 | 0.00 | 0.00 | 41 | 1015.9 |
| 20260904215003 | 80 | 151 | 0.0 | 0.0 | 0.00 | 0.00 | 0.00 | 41 | 1016.2 |
| 20260904213505 | 80 | 178 | 0.0 | 0.0 | 0.00 | 0.00 | 0.00 | 41 | 1016.2 |
| 20260904212001 | 80 | 166 | 0.0 | 4.0 | 0.00 | 0.00 | 0.00 | 41 | 1016.1 |
| 20260904210503 | 80 | 58 | 0.0 | 0.0 | 0.00 | 0.00 | 0.00 | 42 | 1016.0 |
| 20260904205004 | 80 | 72 | 0.0 | 0.0 | 0.00 | 0.00 | 0.00 | 43 | 1016.1 |
| 20260904203502 | 79 | 171 | 0.0 | 1.0 | 0.00 | 0.00 | 0.00 | 44 | 1016.2 |
| 20260904202001 | 80 | 161 | 0.0 | 0.0 | 0.00 | 0.00 | 0.00 | 44 | 1016.2 |
| 20260904200502 | 80 | 149 | 0.0 | 2.0 | 0.00 | 0.00 | 0.00 | 44 | 1016.1 |
| 20260904195002 | 80 | 183 | 0.0 | 2.0 | 0.00 | 0.00 | 0.00 | 45 | 1016.3 |
| 20260904193505 | 80 | 169 | 0.0 | 2.0 | 0.00 | 0.00 | 0.00 | 45 | 1016.3 |
| 20260904190507 | 81 | 0 | 0.0 | 4.0 | 0.00 | 0.00 | 0.00 | 43 | 1016.3 |
| 20260904185003 | 81 | 48 | 4.0 | 9.0 | 0.00 | 0.00 | 0.00 | 43 | 1016.1 |
| 20260904183505 | 82 | 45 | 1.0 | 9.0 | 0.00 | 0.00 | 0.00 | 43 | 1015.9 |
| 20260904182003 | 82 | 34 | 1.0 | 10.0 | 0.00 | 0.00 | 0.00 | 43 | 1015.8 |
| 20260904180505 | 82 | 0 | 1.0 | 10.0 | 0.00 | 0.00 | 0.00 | 43 | 1015.6 |
| 20260904175003 | 82 | 300 | 3.0 | 7.0 | 0.00 | 0.00 | 0.00 | 44 | 1015.4 |
| 20260904173502 | 83 | 0 | 4.0 | 10.0 | 0.00 | 0.00 | 0.00 | 44 | 1015.2 |
| 20260904170504 | 84 | 58 | 5.0 | 12.0 | 0.00 | 0.00 | 0.00 | 40 | 1014.7 |
| 20260904165002 | 84 | 16 | 4.0 | 13.0 | 0.00 | 0.00 | 0.00 | 40 | 1014.5 |
| 20260904163505 | 85 | 65 | 7.0 | 17.0 | 0.00 | 0.00 | 0.00 | 40 | 1014.3 |
| 20260904162001 | 85 | 341 | 6.0 | 18.0 | 0.00 | 0.00 | 0.00 | 40 | 1014.3 |
| 20260904160502 | 85 | 357 | 7.0 | 15.0 | 0.00 | 0.00 | 0.00 | 40 | 1014.3 |
| 20260904155004 | 86 | 14 | 5.0 | 15.0 | 0.00 | 0.00 | 0.00 | 39 | 1014.2 |
| 20260904153505 | 86 | 1 | 7.0 | 15.0 | 0.00 | 0.00 | 0.00 | 40 | 1014.1 |
| 20260904152001 | 87 | 6 | 4.0 | 12.0 | 0.00 | 0.00 | 0.00 | 40 | 1014.0 |
| 20260904150507 | 87 | 351 | 3.0 | 14.0 | 0.00 | 0.00 | 0.00 | 39 | 1014.0 |
| 20260904145001 | 88 | 39 | 4.0 | 16.0 | 0.00 | 0.00 | 0.00 | 39 | 1014.0 |
| 20260904142008 | 88 | 14 | 3.0 | 10.0 | 0.00 | 0.00 | 0.00 | 39 | 1014.0 |
| 20260904140502 | 88 | 17 | 4.0 | 13.0 | 0.00 | 0.00 | 0.00 | 39 | 1014.1 |
| 20260904133502 | 88 | 16 | 4.0 | 12.0 | 0.00 | 0.00 | 0.00 | 39 | 1014.0 |
| 20260904130502 | 88 | 340 | 8.0 | 15.0 | 0.00 | 0.00 | 0.00 | 38 | 1014.0 |
| 20260904125001 | 88 | 48 | 6.0 | 18.0 | 0.00 | 0.00 | 0.00 | 39 | 1014.0 |
| 20260904123502 | 89 | 175 | 2.0 | 12.0 | 0.00 | 0.00 | 0.00 | 39 | 1014.0 |
| 20260904122001 | 88 | 331 | 5.0 | 14.0 | 0.00 | 0.00 | 0.00 | 38 | 1014.2 |
| 20260904120503 | 88 | 86 | 2.0 | 13.0 | 0.00 | 0.00 | 0.00 | 38 | 1014.2 |
| 20260904115002 | 88 | 0 | 5.0 | 17.0 | 0.00 | 0.00 | 0.00 | 37 | 1014.5 |
| 20260904113510 | 88 | 0 | 8.0 | 16.0 | 0.00 | 0.00 | 0.00 | 38 | 1014.4 |
| 20260904110504 | 88 | 351 | 5.0 | 15.0 | 0.00 | 0.00 | 0.00 | 39 | 1014.6 |
| 20260904105002 | 88 | 313 | 7.0 | 16.0 | 0.00 | 0.00 | 0.00 | 40 | 1014.5 |
| 20260904102009 | 87 | 0 | 8.0 | 16.0 | 0.00 | 0.00 | 0.00 | 42 | 1014.6 |
| 20260904100504 | 87 | 1 | 9.0 | 17.0 | 0.00 | 0.00 | 0.00 | 42 | 1014.7 |
| 20260904093506 | 88 | 21 | 6.0 | 18.0 | 0.00 | 0.00 | 0.00 | 45 | 1014.7 |
| 20260904090503 | 86 | 13 | 6.0 | 15.0 | 0.00 | 0.00 | 0.00 | 48 | 1014.6 |
| 20260904085000 | 86 | 0 | 6.0 | 17.0 | 0.00 | 0.00 | 0.00 | 49 | 1014.7 |
| 20260904083507 | 86 | 344 | 12.0 | 20.0 | 0.00 | 0.00 | 0.00 | 50 | 1014.7 |
| 20260904082001 | 85 | 30 | 3.0 | 16.0 | 0.00 | 0.00 | 0.00 | 50 | 1014.7 |